Weslaco Annex Farm's Hourly Summary for Tuesday, July 10, 2018
Hour Temp
(f)
RH
(%)
Solar Rad.
(MJ/m2)
Rainfall
(in)
Wind
(mph)
7/10/2018 12:00 AM 78 91 0 0 2.17
7/10/2018 1:00 AM 77 92 0 0 0.96
7/10/2018 2:00 AM 76 94 0 0 1.2
7/10/2018 3:00 AM 76 95 0 0 1.58
7/10/2018 4:00 AM 76 96 0 0 1.6
7/10/2018 5:00 AM 75 97 0 0 1.74
7/10/2018 6:00 AM 75 98 0.01 0 1.64
7/10/2018 7:00 AM 76 97 0.13 0 1.85
7/10/2018 8:00 AM 81 88 0.59 0 5.8
7/10/2018 9:00 AM 85 76 1.11 0 7.62
7/10/2018 10:00 AM 87 67 1.35 0 7.95
7/10/2018 11:00 AM 89 58 1.59 0 7.11
7/10/2018 12:00 PM 90 56 1.61 0 7.19
7/10/2018 1:00 PM 92 53 1.9 0 7.56
7/10/2018 2:00 PM 92 53 1.89 0 8.65
7/10/2018 3:00 PM 91 56 1.04 0 6.48
7/10/2018 4:00 PM 91 54 0.74 0 8.12
7/10/2018 5:00 PM 91 53 0.87 0 9.8
7/10/2018 6:00 PM 90 53 0.68 0 9.79
7/10/2018 7:00 PM 88 60 0.22 0 8.13
7/10/2018 8:00 PM 85 64 0.01 0 5.55
7/10/2018 9:00 PM 83 71 0 0 5.03
7/10/2018 10:00 PM 81 78 0 0 4.26
7/10/2018 11:00 PM 79 84 0 0 3.96
Data Summary 83 74 13.74 0.00 5.24